Time;durP1;ratioP1;P1;durP2;ratioP2;P2;SDS_P1;SDS_P2;PMS_P1;PMS_P2;Temp;Humidity;BMP_temperature;BMP_pressure;BME280_temperature;BME280_humidity;BME280_pressure;Samples;Min_cycle;Max_cycle;Signal;HPM_P1;HPM_P2
2023/02/16 00:00:31;;;;;;;114.45;56.03;;;;;;;;;;4897997;29;20044;-67
2023/02/16 00:02:57;;;;;;;114.63;56.90;;;;;;;;;;4898528;29;20489;-58
2023/02/16 00:05:23;;;;;;;126.60;62.80;;;;;;;;;;4898369;29;20421;-58
2023/02/16 00:07:49;;;;;;;142.35;67.60;;;;;;;;;;4898234;29;20119;-58
2023/02/16 00:10:15;;;;;;;143.15;70.70;;;;;;;;;;4898352;29;20055;-61
2023/02/16 00:15:26;;;;;;;144.13;69.68;;;;;;;;;;4898397;29;20165;-62
2023/02/16 00:17:53;;;;;;;135.60;67.60;;;;;;;;;;4898251;29;20115;-66
2023/02/16 00:20:19;;;;;;;132.77;65.47;;;;;;;;;;4898019;29;20057;-66
2023/02/16 00:22:45;;;;;;;120.68;59.13;;;;;;;;;;4897809;29;20123;-67
2023/02/16 00:25:12;;;;;;;120.53;58.17;;;;;;;;;;4897305;29;20045;-61
2023/02/16 00:27:38;;;;;;;124.72;61.15;;;;;;;;;;4897666;29;20541;-64
2023/02/16 00:30:14;;;;;;;130.60;62.28;;;;;;;;;;4897856;29;20156;-57
2023/02/16 00:32:40;;;;;;;124.78;60.28;;;;;;;;;;4897900;29;20064;-62
2023/02/16 00:35:13;;;;;;;120.72;58.22;;;;;;;;;;4897643;29;20095;-58
2023/02/16 00:37:39;;;;;;;119.45;59.15;;;;;;;;;;4897781;29;20494;-65
2023/02/16 00:40:05;;;;;;;122.72;59.15;;;;;;;;;;4897672;29;20037;-69
2023/02/16 00:42:32;;;;;;;121.47;60.05;;;;;;;;;;4897653;29;20041;-59
2023/02/16 00:44:58;;;;;;;123.20;58.25;;;;;;;;;;4897481;29;20040;-66
2023/02/16 00:47:33;;;;;;;108.15;55.08;;;;;;;;;;4897771;29;20037;-57
2023/02/16 00:49:59;;;;;;;113.20;53.22;;;;;;;;;;4897792;29;20036;-68
2023/02/16 00:52:29;;;;;;;105.30;51.83;;;;;;;;;;4897596;29;20032;-57
2023/02/16 00:54:56;;;;;;;98.38;47.17;;;;;;;;;;4897364;29;20032;-58
2023/02/16 00:57:22;;;;;;;109.68;51.83;;;;;;;;;;4897583;29;20029;-57
2023/02/16 00:59:50;;;;;;;101.28;49.03;;;;;;;;;;4897640;29;20071;-58
2023/02/16 01:02:16;;;;;;;101.93;51.00;;;;;;;;;;4896894;29;20049;-58
2023/02/16 01:04:42;;;;;;;98.55;50.50;;;;;;;;;;4896964;29;20098;-61
2023/02/16 01:12:40;;;;;;;97.30;48.38;;;;;;;;;;4897265;29;20507;-59
2023/02/16 01:15:09;;;;;;;99.20;50.00;;;;;;;;;;4897357;29;20036;-58
2023/02/16 01:17:35;;;;;;;103.40;51.92;;;;;;;;;;4897063;29;20041;-60
2023/02/16 01:20:02;;;;;;;109.20;53.15;;;;;;;;;;4897231;29;20031;-68
2023/02/16 01:22:32;;;;;;;113.07;56.28;;;;;;;;;;4897104;29;20033;-57
2023/02/16 01:24:58;;;;;;;105.82;52.80;;;;;;;;;;4896936;29;20028;-58
2023/02/16 01:27:24;;;;;;;96.32;49.03;;;;;;;;;;4897053;29;20028;-58
2023/02/16 01:29:50;;;;;;;101.20;48.55;;;;;;;;;;4896919;29;20039;-57
2023/02/16 01:32:16;;;;;;;100.53;49.85;;;;;;;;;;4896847;29;20093;-57
2023/02/16 01:34:42;;;;;;;98.20;49.28;;;;;;;;;;4896782;29;20449;-57
2023/02/16 01:37:15;;;;;;;88.85;44.97;;;;;;;;;;4895914;29;20060;-66
2023/02/16 01:39:41;;;;;;;92.35;45.28;;;;;;;;;;4896671;29;20032;-57
2023/02/16 01:42:10;;;;;;;94.38;47.65;;;;;;;;;;4896751;29;20040;-67
2023/02/16 01:44:46;;;;;;;99.38;48.35;;;;;;;;;;4896582;29;20374;-56
2023/02/16 01:47:21;;;;;;;89.95;46.95;;;;;;;;;;4896172;29;20040;-57
2023/02/16 01:49:47;;;;;;;91.68;48.33;;;;;;;;;;4896639;29;20084;-57
2023/02/16 01:52:31;;;;;;;95.35;47.22;;;;;;;;;;4896492;29;20024;-68
2023/02/16 01:55:30;;;;;;;93.18;46.05;;;;;;;;;;4896217;29;20040;-57
2023/02/16 01:58:00;;;;;;;92.32;45.17;;;;;;;;;;4856830;29;20065;-66
2023/02/16 02:00:45;;;;;;;89.05;45.42;;;;;;;;;;4857127;29;20082;-58
2023/02/16 02:05:57;;;;;;;91.97;46.42;;;;;;;;;;4857243;29;20078;-57
2023/02/16 02:08:34;;;;;;;91.63;45.55;;;;;;;;;;4856453;29;20048;-61
2023/02/16 02:11:00;;;;;;;93.63;44.75;;;;;;;;;;4856924;29;20041;-61
2023/02/16 02:13:32;;;;;;;89.82;45.53;;;;;;;;;;4856786;29;20053;-57
2023/02/16 02:15:59;;;;;;;84.55;45.38;;;;;;;;;;4856492;29;20501;-66
2023/02/16 02:18:25;;;;;;;85.43;43.63;;;;;;;;;;4856748;29;20150;-56
2023/02/16 02:23:53;;;;;;;82.50;42.25;;;;;;;;;;4856551;29;20044;-57
2023/02/16 02:26:37;;;;;;;79.07;40.67;;;;;;;;;;4856562;29;20467;-65
2023/02/16 02:29:22;;;;;;;74.53;38.50;;;;;;;;;;4856632;29;20275;-57
2023/02/16 02:31:48;;;;;;;75.32;38.17;;;;;;;;;;4856174;29;20109;-58
2023/02/16 02:34:23;;;;;;;70.60;36.80;;;;;;;;;;4887769;29;20040;-57
2023/02/16 02:36:52;;;;;;;71.65;37.42;;;;;;;;;;4895948;29;20060;-58
2023/02/16 02:39:21;;;;;;;72.22;37.42;;;;;;;;;;4895731;29;20032;-63
2023/02/16 02:42:06;;;;;;;71.40;36.85;;;;;;;;;;4895873;29;20477;-57
2023/02/16 02:44:48;;;;;;;69.78;36.08;;;;;;;;;;4895578;29;20473;-61
2023/02/16 02:47:14;;;;;;;68.30;35.70;;;;;;;;;;4896151;29;20057;-58
2023/02/16 02:49:41;;;;;;;73.68;36.00;;;;;;;;;;4898435;29;20287;-66
2023/02/16 02:52:07;;;;;;;71.22;35.28;;;;;;;;;;4899886;29;20033;-57
2023/02/16 03:03:00;;;;;;;74.20;36.13;;;;;;;;;;4901258;29;20068;-67
2023/02/16 03:05:27;;;;;;;70.80;36.10;;;;;;;;;;4900722;29;20396;-57
2023/02/16 03:07:56;;;;;;;72.22;36.70;;;;;;;;;;4899664;29;20059;-63
2023/02/16 03:13:18;;;;;;;72.70;36.25;;;;;;;;;;4899578;29;20043;-57
2023/02/16 03:15:45;;;;;;;69.25;37.28;;;;;;;;;;4899514;29;20061;-56
2023/02/16 03:29:20;;;;;;;74.47;36.40;;;;;;;;;;4899177;29;20059;-65
2023/02/16 03:31:46;;;;;;;74.17;36.77;;;;;;;;;;4899027;29;20504;-64
2023/02/16 03:34:13;;;;;;;72.32;37.00;;;;;;;;;;4898957;29;20036;-66
2023/02/16 03:36:40;;;;;;;71.82;36.92;;;;;;;;;;4898915;29;20032;-57
2023/02/16 03:39:07;;;;;;;74.47;38.80;;;;;;;;;;4898870;29;20032;-58
2023/02/16 03:41:34;;;;;;;75.78;37.60;;;;;;;;;;4898838;29;20124;-58
2023/02/16 03:44:00;;;;;;;75.60;39.03;;;;;;;;;;4898678;29;20037;-58
2023/02/16 03:46:26;;;;;;;83.25;39.97;;;;;;;;;;4898895;29;20041;-56
2023/02/16 03:48:52;;;;;;;73.43;37.75;;;;;;;;;;4898568;29;20024;-60
2023/02/16 03:51:18;;;;;;;74.95;39.33;;;;;;;;;;4898735;29;20468;-62
2023/02/16 03:53:44;;;;;;;73.47;38.22;;;;;;;;;;4898659;29;20032;-59
2023/02/16 03:56:10;;;;;;;76.15;37.78;;;;;;;;;;4898534;29;20104;-58
2023/02/16 03:58:37;;;;;;;73.65;35.85;;;;;;;;;;4898891;29;20544;-57
2023/02/16 04:01:03;;;;;;;74.25;37.53;;;;;;;;;;4897482;29;20045;-68
2023/02/16 04:03:29;;;;;;;73.68;37.72;;;;;;;;;;4898695;29;20052;-57
2023/02/16 04:05:55;;;;;;;71.15;36.17;;;;;;;;;;4898437;29;20473;-57
2023/02/16 04:08:21;;;;;;;69.15;36.53;;;;;;;;;;4898392;29;20029;-57
2023/02/16 04:10:47;;;;;;;70.05;35.25;;;;;;;;;;4898529;29;20035;-57
2023/02/16 04:13:13;;;;;;;69.70;35.20;;;;;;;;;;4898326;29;20036;-56
2023/02/16 04:15:40;;;;;;;72.85;37.17;;;;;;;;;;4898144;29;20374;-66
2023/02/16 04:18:06;;;;;;;69.35;36.17;;;;;;;;;;4898343;29;20608;-62
2023/02/16 04:20:33;;;;;;;67.88;34.60;;;;;;;;;;4897891;29;20033;-56
2023/02/16 04:23:00;;;;;;;68.45;36.97;;;;;;;;;;4898029;29;20047;-57
2023/02/16 04:25:26;;;;;;;71.43;36.22;;;;;;;;;;4897845;29;20190;-62
2023/02/16 04:27:52;;;;;;;70.03;36.78;;;;;;;;;;4897956;29;20036;-56
2023/02/16 04:30:20;;;;;;;71.50;36.53;;;;;;;;;;4897989;29;20025;-64
2023/02/16 04:32:46;;;;;;;70.47;37.35;;;;;;;;;;4897839;29;20108;-67
2023/02/16 04:35:12;;;;;;;76.85;37.38;;;;;;;;;;4897958;29;20028;-56
2023/02/16 04:37:38;;;;;;;81.25;40.45;;;;;;;;;;4897824;29;20031;-64
2023/02/16 04:40:05;;;;;;;74.00;38.88;;;;;;;;;;4897726;29;20159;-63
2023/02/16 04:42:31;;;;;;;78.40;39.28;;;;;;;;;;4898050;29;20131;-66
2023/02/16 04:44:57;;;;;;;87.60;43.33;;;;;;;;;;4897499;29;20055;-60
2023/02/16 04:47:25;;;;;;;89.13;44.45;;;;;;;;;;4897588;29;20739;-66
2023/02/16 04:49:51;;;;;;;93.28;47.47;;;;;;;;;;4897781;29;20508;-66
2023/02/16 04:52:18;;;;;;;93.55;47.35;;;;;;;;;;4897485;29;20489;-57
2023/02/16 04:54:44;;;;;;;105.10;48.47;;;;;;;;;;4897622;29;20477;-67
2023/02/16 04:57:10;;;;;;;106.95;51.13;;;;;;;;;;4897629;29;20029;-58
2023/02/16 04:59:37;;;;;;;99.30;48.65;;;;;;;;;;4897310;29;20489;-57
2023/02/16 05:02:03;;;;;;;104.55;48.97;;;;;;;;;;4897509;29;20071;-56
2023/02/16 05:04:29;;;;;;;99.80;48.28;;;;;;;;;;4897324;29;20083;-67
2023/02/16 05:06:55;;;;;;;100.97;48.40;;;;;;;;;;4897353;29;20029;-60
2023/02/16 05:09:21;;;;;;;98.88;48.45;;;;;;;;;;4897390;29;20031;-56
2023/02/16 05:14:43;;;;;;;97.63;49.08;;;;;;;;;;4897024;29;20497;-57
2023/02/16 05:17:17;;;;;;;101.55;49.75;;;;;;;;;;4897061;29;20033;-57
2023/02/16 05:19:43;;;;;;;102.30;49.53;;;;;;;;;;4897051;29;20032;-57
2023/02/16 05:22:10;;;;;;;95.15;47.25;;;;;;;;;;4896924;29;20075;-57
2023/02/16 05:24:36;;;;;;;99.90;50.90;;;;;;;;;;4897106;29;20468;-67
2023/02/16 05:27:03;;;;;;;97.13;49.22;;;;;;;;;;4896890;29;20039;-57
2023/02/16 05:29:29;;;;;;;94.68;49.38;;;;;;;;;;4896785;29;20095;-67
2023/02/16 05:31:56;;;;;;;103.82;51.58;;;;;;;;;;4896638;29;20060;-57
2023/02/16 05:34:22;;;;;;;107.85;50.60;;;;;;;;;;4896796;29;20021;-58
2023/02/16 05:36:48;;;;;;;104.05;51.72;;;;;;;;;;4896817;29;20111;-60
2023/02/16 05:39:14;;;;;;;107.57;53.42;;;;;;;;;;4896734;29;20028;-58
2023/02/16 05:41:40;;;;;;;106.40;53.17;;;;;;;;;;4896666;29;20037;-61
2023/02/16 05:44:06;;;;;;;109.88;52.97;;;;;;;;;;4896675;29;20029;-62
2023/02/16 05:46:34;;;;;;;110.55;53.28;;;;;;;;;;4896512;29;20040;-64
2023/02/16 05:49:00;;;;;;;113.82;55.42;;;;;;;;;;4896416;29;20031;-66
2023/02/16 05:51:26;;;;;;;111.95;55.00;;;;;;;;;;4896542;29;20493;-58
2023/02/16 05:53:52;;;;;;;113.72;53.92;;;;;;;;;;4896508;29;20033;-63
2023/02/16 05:56:19;;;;;;;116.38;55.97;;;;;;;;;;4896369;29;20033;-63
2023/02/16 05:58:45;;;;;;;110.80;52.05;;;;;;;;;;4896390;29;20032;-67
2023/02/16 06:01:11;;;;;;;108.60;53.10;;;;;;;;;;4896211;29;20047;-58
2023/02/16 06:03:37;;;;;;;105.20;53.67;;;;;;;;;;4896477;29;20074;-58
2023/02/16 06:06:04;;;;;;;104.78;52.60;;;;;;;;;;4896454;29;20036;-57
2023/02/16 06:08:30;;;;;;;102.78;51.40;;;;;;;;;;4896237;29;20484;-68
2023/02/16 06:10:56;;;;;;;99.50;49.85;;;;;;;;;;4896335;29;20031;-62
2023/02/16 06:13:23;;;;;;;94.70;48.30;;;;;;;;;;4896113;29;20036;-59
2023/02/16 06:15:51;;;;;;;101.38;50.08;;;;;;;;;;4896280;29;20036;-68
2023/02/16 06:18:17;;;;;;;101.72;50.33;;;;;;;;;;4896168;29;20044;-66
2023/02/16 06:20:43;;;;;;;110.22;52.70;;;;;;;;;;4896192;29;20032;-63
2023/02/16 06:23:10;;;;;;;108.30;52.45;;;;;;;;;;4895372;29;20124;-67
2023/02/16 06:25:36;;;;;;;111.55;53.35;;;;;;;;;;4878796;29;20103;-64
2023/02/16 06:28:02;;;;;;;122.68;61.80;;;;;;;;;;4895894;29;20479;-66
2023/02/16 06:30:28;;;;;;;130.20;61.72;;;;;;;;;;4895783;29;20116;-67
2023/02/16 06:32:54;;;;;;;124.82;60.38;;;;;;;;;;4895817;29;20049;-66
2023/02/16 06:35:21;;;;;;;117.93;57.83;;;;;;;;;;4895894;29;20040;-65
2023/02/16 06:37:47;;;;;;;121.13;57.17;;;;;;;;;;4895951;29;20039;-63
2023/02/16 06:40:13;;;;;;;121.78;57.08;;;;;;;;;;4895440;29;20037;-64
2023/02/16 06:42:40;;;;;;;124.88;57.67;;;;;;;;;;4895892;29;20044;-65
2023/02/16 06:45:06;;;;;;;115.15;55.90;;;;;;;;;;4895535;29;20028;-61
2023/02/16 06:47:32;;;;;;;122.57;59.30;;;;;;;;;;4895837;29;20032;-66
2023/02/16 06:49:58;;;;;;;128.30;64.65;;;;;;;;;;4895881;29;20021;-67
2023/02/16 06:52:24;;;;;;;192.77;98.10;;;;;;;;;;4896095;29;20458;-60
2023/02/16 06:54:50;;;;;;;137.52;70.78;;;;;;;;;;4895718;29;20418;-67
2023/02/16 06:57:16;;;;;;;120.53;62.05;;;;;;;;;;4895884;29;20047;-60
2023/02/16 06:59:42;;;;;;;120.40;60.47;;;;;;;;;;4895694;29;20036;-67
2023/02/16 07:02:09;;;;;;;113.10;56.88;;;;;;;;;;4895833;29;20044;-66
2023/02/16 07:04:35;;;;;;;115.60;59.40;;;;;;;;;;4895208;29;20056;-65
2023/02/16 07:07:01;;;;;;;136.88;68.75;;;;;;;;;;4895212;29;20032;-59
2023/02/16 07:09:27;;;;;;;113.03;56.97;;;;;;;;;;4895315;29;20029;-65
2023/02/16 07:11:53;;;;;;;103.85;53.35;;;;;;;;;;4895458;29;20044;-67
2023/02/16 07:14:20;;;;;;;108.00;54.75;;;;;;;;;;4895045;29;20028;-70
2023/02/16 07:16:46;;;;;;;110.10;53.60;;;;;;;;;;4895033;29;20028;-66
2023/02/16 07:19:12;;;;;;;108.55;54.03;;;;;;;;;;4894956;29;20021;-69
2023/02/16 07:21:38;;;;;;;107.10;53.60;;;;;;;;;;4895238;29;20108;-68
2023/02/16 07:24:04;;;;;;;109.55;54.42;;;;;;;;;;4895228;29;20028;-67
2023/02/16 07:26:30;;;;;;;110.00;52.33;;;;;;;;;;4895493;29;20103;-69
2023/02/16 07:28:56;;;;;;;96.70;48.78;;;;;;;;;;4894999;29;20100;-69
2023/02/16 07:31:25;;;;;;;99.55;51.05;;;;;;;;;;4894495;29;20060;-63
2023/02/16 07:33:51;;;;;;;105.20;51.50;;;;;;;;;;4895244;29;20108;-64
2023/02/16 07:36:17;;;;;;;93.32;47.47;;;;;;;;;;4898276;29;20037;-64
2023/02/16 07:38:43;;;;;;;94.88;48.13;;;;;;;;;;4898832;29;20568;-63
2023/02/16 07:41:10;;;;;;;85.55;43.85;;;;;;;;;;4898876;29;20040;-69
2023/02/16 07:43:36;;;;;;;88.15;44.80;;;;;;;;;;4898809;29;20031;-67
2023/02/16 07:46:02;;;;;;;87.40;44.67;;;;;;;;;;4898520;29;20674;-67
2023/02/16 07:48:29;;;;;;;93.35;45.60;;;;;;;;;;4898721;29;20073;-68
2023/02/16 07:50:55;;;;;;;77.97;39.67;;;;;;;;;;4898986;29;20032;-58
2023/02/16 07:53:21;;;;;;;73.82;38.45;;;;;;;;;;4898564;29;20032;-61
2023/02/16 07:55:47;;;;;;;75.75;38.00;;;;;;;;;;4898335;29;20068;-58
2023/02/16 07:58:26;;;;;;;82.45;41.47;;;;;;;;;;4898599;29;20032;-64
2023/02/16 08:01:08;;;;;;;82.22;41.65;;;;;;;;;;4898193;29;20533;-67
2023/02/16 08:03:34;;;;;;;;;;;;;;;;;;4898865;29;20560;-59
2023/02/16 08:06:00;;;;;;;73.78;38.55;;;;;;;;;;4898258;29;19912;-67
2023/02/16 08:08:27;;;;;;;74.80;38.00;;;;;;;;;;4898095;29;20437;-64
2023/02/16 08:10:53;;;;;;;86.10;42.08;;;;;;;;;;4898206;29;20483;-59
2023/02/16 08:13:23;;;;;;;88.35;44.38;;;;;;;;;;4902493;29;20092;-70
2023/02/16 08:15:50;;;;;;;82.20;42.38;;;;;;;;;;4896632;29;20036;-59
2023/02/16 08:18:16;;;;;;;80.78;42.20;;;;;;;;;;4903995;29;20036;-71
2023/02/16 08:20:42;;;;;;;82.70;42.33;;;;;;;;;;4905011;29;20040;-62
2023/02/16 08:23:09;;;;;;;85.72;43.25;;;;;;;;;;4905068;29;20028;-70
2023/02/16 08:25:35;;;;;;;112.53;56.97;;;;;;;;;;4906133;29;20024;-67
2023/02/16 08:28:01;;;;;;;95.28;48.75;;;;;;;;;;4904949;29;20029;-63
2023/02/16 08:30:27;;;;;;;89.68;45.88;;;;;;;;;;4904796;29;20072;-57
2023/02/16 08:32:55;;;;;;;86.65;44.55;;;;;;;;;;4905986;29;20044;-63
2023/02/16 08:35:21;;;;;;;77.53;40.72;;;;;;;;;;4911375;29;20024;-56
2023/02/16 08:37:47;;;;;;;82.75;42.83;;;;;;;;;;4913904;29;20039;-56
2023/02/16 08:40:13;;;;;;;78.22;41.22;;;;;;;;;;4906133;29;20391;-65
2023/02/16 08:42:40;;;;;;;85.22;43.10;;;;;;;;;;4894456;29;20404;-58
2023/02/16 08:45:06;;;;;;;84.88;44.70;;;;;;;;;;4911768;29;20491;-57
2023/02/16 08:47:35;;;;;;;98.03;50.85;;;;;;;;;;4911650;29;20032;-68
2023/02/16 08:50:01;;;;;;;102.18;51.13;;;;;;;;;;4896896;29;20115;-61
2023/02/16 08:52:27;;;;;;;96.40;50.50;;;;;;;;;;4906990;29;20064;-68
2023/02/16 08:54:54;;;;;;;96.35;48.03;;;;;;;;;;4904751;29;20114;-60
2023/02/16 08:57:23;;;;;;;93.30;47.53;;;;;;;;;;4901654;29;20035;-62
2023/02/16 09:00:32;;;;;;;91.47;44.35;;;;;;;;;;4906354;29;20064;-63
2023/02/16 09:02:38;;;;;;;95.47;46.78;;;;;;;;;;4903325;29;20135;-62
2023/02/16 09:05:09;;;;;;;87.43;46.30;;;;;;;;;;4906765;29;20060;-67
2023/02/16 09:07:35;;;;;;;87.43;46.08;;;;;;;;;;4905403;29;20045;-66
2023/02/16 09:10:03;;;;;;;82.72;42.92;;;;;;;;;;4902876;29;20377;-57
2023/02/16 09:12:29;;;;;;;87.95;45.78;;;;;;;;;;4905534;29;20027;-63
2023/02/16 09:14:56;;;;;;;87.72;46.47;;;;;;;;;;4893062;29;20440;-66
2023/02/16 09:17:22;;;;;;;86.88;46.15;;;;;;;;;;4888915;29;20153;-58
2023/02/16 09:19:48;;;;;;;94.75;48.83;;;;;;;;;;4905896;29;20020;-67
2023/02/16 09:22:14;;;;;;;89.82;47.63;;;;;;;;;;4905081;29;20039;-65
2023/02/16 09:24:40;;;;;;;91.22;48.65;;;;;;;;;;4904303;29;20020;-65
2023/02/16 09:27:06;;;;;;;91.25;48.75;;;;;;;;;;4905997;29;20087;-58
2023/02/16 09:29:33;;;;;;;93.25;50.35;;;;;;;;;;4903968;29;20032;-66
2023/02/16 09:31:59;;;;;;;99.43;51.75;;;;;;;;;;4902283;29;20087;-68
2023/02/16 09:34:26;;;;;;;92.20;49.92;;;;;;;;;;4905563;29;20035;-66
2023/02/16 09:36:52;;;;;;;93.72;49.17;;;;;;;;;;4904479;29;20032;-57
2023/02/16 09:39:18;;;;;;;93.28;49.25;;;;;;;;;;4903812;29;20024;-59
2023/02/16 09:42:01;;;;;;;93.47;49.92;;;;;;;;;;4905785;29;20039;-59
2023/02/16 09:44:36;;;;;;;92.60;50.17;;;;;;;;;;4905134;29;20092;-68
2023/02/16 09:47:04;;;;;;;95.00;50.05;;;;;;;;;;4878133;29;20051;-60
2023/02/16 09:49:36;;;;;;;94.80;49.88;;;;;;;;;;4895661;29;20112;-68
2023/02/16 09:52:25;;;;;;;95.40;49.40;;;;;;;;;;4895312;29;20043;-70
2023/02/16 09:55:02;;;;;;;95.95;48.63;;;;;;;;;;4894649;29;20040;-63
2023/02/16 09:57:38;;;;;;;91.78;50.65;;;;;;;;;;4877155;29;20063;-70
2023/02/16 10:00:13;;;;;;;90.22;49.22;;;;;;;;;;4894390;29;20048;-61
2023/02/16 10:02:42;;;;;;;91.32;49.03;;;;;;;;;;4903564;29;20392;-61
2023/02/16 10:05:12;;;;;;;91.15;50.00;;;;;;;;;;4892037;29;20433;-64
2023/02/16 10:07:44;;;;;;;85.88;49.38;;;;;;;;;;4895033;29;20032;-69
2023/02/16 10:10:13;;;;;;;93.68;49.88;;;;;;;;;;4896001;29;20032;-59
2023/02/16 10:12:42;;;;;;;93.20;51.60;;;;;;;;;;4895458;29;20477;-67
2023/02/16 10:15:14;;;;;;;94.22;50.72;;;;;;;;;;4895852;29;20515;-70
2023/02/16 10:17:45;;;;;;;94.07;52.60;;;;;;;;;;4895941;29;20039;-67
2023/02/16 10:20:13;;;;;;;92.03;51.08;;;;;;;;;;4895480;29;20035;-60
2023/02/16 10:22:39;;;;;;;91.35;49.38;;;;;;;;;;4895766;29;20036;-63
2023/02/16 10:25:08;;;;;;;91.63;49.20;;;;;;;;;;4895495;29;20412;-59
2023/02/16 10:27:37;;;;;;;97.47;52.20;;;;;;;;;;4895036;29;20076;-69
2023/02/16 10:30:11;;;;;;;94.03;49.15;;;;;;;;;;4895619;29;20033;-68
2023/02/16 10:32:39;;;;;;;93.07;49.80;;;;;;;;;;4895031;29;20068;-59
2023/02/16 10:35:19;;;;;;;86.15;46.97;;;;;;;;;;4895863;29;20032;-58
2023/02/16 10:37:59;;;;;;;84.80;47.63;;;;;;;;;;4897447;29;20437;-58
2023/02/16 10:40:48;;;;;;;87.15;48.30;;;;;;;;;;4895034;29;20381;-59
2023/02/16 10:43:43;;;;;;;88.80;48.33;;;;;;;;;;4837531;29;20124;-71
2023/02/16 10:46:11;;;;;;;109.85;55.95;;;;;;;;;;4819031;29;20054;-69
2023/02/16 10:48:37;;;;;;;85.60;47.78;;;;;;;;;;4818786;29;20077;-60
2023/02/16 10:51:06;;;;;;;89.68;50.17;;;;;;;;;;4819421;29;20103;-70
2023/02/16 10:53:35;;;;;;;109.03;57.92;;;;;;;;;;4819457;29;20403;-59
2023/02/16 10:56:14;;;;;;;89.82;48.10;;;;;;;;;;4819499;29;20042;-60
2023/02/16 10:58:41;;;;;;;89.60;47.80;;;;;;;;;;4819584;29;20038;-59
2023/02/16 11:01:10;;;;;;;81.25;45.95;;;;;;;;;;4819313;29;20054;-61
2023/02/16 11:03:40;;;;;;;82.78;45.80;;;;;;;;;;4819310;29;20109;-63
2023/02/16 11:06:17;;;;;;;78.10;44.42;;;;;;;;;;4819281;29;20034;-70
2023/02/16 11:08:58;;;;;;;79.82;44.15;;;;;;;;;;4819271;29;20050;-64
2023/02/16 11:11:44;;;;;;;77.55;43.03;;;;;;;;;;4822700;29;20114;-66
2023/02/16 11:14:30;;;;;;;75.72;43.22;;;;;;;;;;4822691;29;20058;-64
2023/02/16 11:17:13;;;;;;;81.32;45.28;;;;;;;;;;4822202;29;20488;-60
2023/02/16 11:19:41;;;;;;;75.55;42.83;;;;;;;;;;4832150;29;20038;-63
2023/02/16 11:22:23;;;;;;;76.18;42.08;;;;;;;;;;4872061;29;20063;-62
2023/02/16 11:24:50;;;;;;;79.55;43.60;;;;;;;;;;4898863;29;20041;-60
2023/02/16 11:27:20;;;;;;;85.32;47.72;;;;;;;;;;4898797;29;20020;-68
2023/02/16 11:29:46;;;;;;;76.10;43.60;;;;;;;;;;4898694;29;20037;-68
2023/02/16 11:32:13;;;;;;;80.90;45.05;;;;;;;;;;4898106;29;20061;-71
2023/02/16 11:34:57;;;;;;;78.45;45.30;;;;;;;;;;4905376;29;20115;-65
2023/02/16 11:37:28;;;;;;;72.55;43.75;;;;;;;;;;4898619;29;20064;-59
2023/02/16 11:39:55;;;;;;;79.95;44.80;;;;;;;;;;4898037;29;20405;-58
2023/02/16 11:42:21;;;;;;;75.97;43.63;;;;;;;;;;4898667;29;20040;-58
2023/02/16 11:44:52;;;;;;;83.72;46.70;;;;;;;;;;4898177;29;20039;-64
2023/02/16 11:47:21;;;;;;;101.07;56.90;;;;;;;;;;4898589;29;20029;-70
2023/02/16 11:49:48;;;;;;;99.72;56.08;;;;;;;;;;4898480;29;20116;-65
2023/02/16 11:52:24;;;;;;;97.03;55.80;;;;;;;;;;4902649;29;20029;-65
2023/02/16 11:54:54;;;;;;;105.45;57.70;;;;;;;;;;4906970;29;20028;-68
2023/02/16 11:57:29;;;;;;;99.00;56.70;;;;;;;;;;4904793;29;20139;-63
2023/02/16 11:59:59;;;;;;;97.97;57.33;;;;;;;;;;4896847;29;20039;-63
2023/02/16 12:02:29;;;;;;;100.75;55.33;;;;;;;;;;4892669;29;20072;-66
2023/02/16 12:05:13;;;;;;;110.47;56.50;;;;;;;;;;4907870;29;20048;-59
2023/02/16 12:07:51;;;;;;;100.50;55.00;;;;;;;;;;4913655;29;20028;-72
2023/02/16 12:10:44;;;;;;;99.18;54.67;;;;;;;;;;4910509;29;20036;-67
2023/02/16 12:13:13;;;;;;;102.85;57.80;;;;;;;;;;4858059;29;20419;-60
2023/02/16 12:15:44;;;;;;;101.18;57.72;;;;;;;;;;4857843;29;20129;-63
2023/02/16 12:18:30;;;;;;;107.93;60.90;;;;;;;;;;4857890;29;20045;-59
2023/02/16 12:20:57;;;;;;;101.03;58.53;;;;;;;;;;4858436;29;20116;-82
2023/02/16 12:23:24;;;;;;;96.20;57.78;;;;;;;;;;4857964;29;20065;-75
2023/02/16 12:26:02;;;;;;;106.90;59.92;;;;;;;;;;4858412;29;20033;-79
2023/02/16 12:28:41;;;;;;;104.15;60.38;;;;;;;;;;4843650;29;20505;-60
2023/02/16 12:31:10;;;;;;;105.03;60.50;;;;;;;;;;4858571;29;20072;-62
2023/02/16 12:33:48;;;;;;;104.38;61.33;;;;;;;;;;4858051;29;20509;-77
2023/02/16 12:36:37;;;;;;;110.55;60.58;;;;;;;;;;4857761;29;20048;-71
2023/02/16 12:39:17;;;;;;;115.72;63.03;;;;;;;;;;4849234;29;20045;-58
2023/02/16 12:41:43;;;;;;;111.07;60.65;;;;;;;;;;4839991;29;20053;-70
2023/02/16 12:44:15;;;;;;;113.00;60.10;;;;;;;;;;4841591;29;20485;-74
2023/02/16 12:46:42;;;;;;;;;;;;;;;;;;4825134;29;20094;-73
2023/02/16 12:49:26;;;;;;;98.63;55.75;;;;;;;;;;4839827;29;19935;-74
2023/02/16 12:52:04;;;;;;;101.35;57.17;;;;;;;;;;4841546;29;20029;-58
2023/02/16 12:54:30;;;;;;;97.50;55.70;;;;;;;;;;4841866;29;20498;-89
2023/02/16 12:57:05;;;;;;;96.85;55.25;;;;;;;;;;4842045;29;20529;-75
2023/02/16 12:59:41;;;;;;;94.82;53.80;;;;;;;;;;4842075;29;20034;-80
2023/02/16 13:02:26;;;;;;;92.82;52.58;;;;;;;;;;4841244;29;20042;-81
2023/02/16 13:05:13;;;;;;;87.53;51.42;;;;;;;;;;4840018;29;20391;-81
2023/02/16 13:07:42;;;;;;;82.53;46.03;;;;;;;;;;4841083;29;20064;-67
2023/02/16 13:10:21;;;;;;;85.55;47.42;;;;;;;;;;4839569;29;20041;-59
2023/02/16 13:12:51;;;;;;;77.63;44.95;;;;;;;;;;4841181;29;20042;-74
2023/02/16 13:15:26;;;;;;;74.75;43.50;;;;;;;;;;4841112;29;20070;-60
2023/02/16 13:17:56;;;;;;;74.10;44.75;;;;;;;;;;4841054;29;20116;-75
2023/02/16 13:20:22;;;;;;;78.05;45.67;;;;;;;;;;4841126;29;20097;-60
2023/02/16 13:22:48;;;;;;;76.95;43.70;;;;;;;;;;4840868;29;20038;-63
2023/02/16 13:25:33;;;;;;;78.60;44.90;;;;;;;;;;4841196;29;20078;-70
2023/02/16 13:28:00;;;;;;;78.55;45.08;;;;;;;;;;4843833;29;20033;-74
2023/02/16 13:30:41;;;;;;;79.45;46.03;;;;;;;;;;4843167;29;20042;-76
2023/02/16 13:33:20;;;;;;;77.28;45.72;;;;;;;;;;4875933;29;20061;-64
2023/02/16 13:35:46;;;;;;;76.20;44.20;;;;;;;;;;4877541;29;20029;-74
2023/02/16 13:38:15;;;;;;;74.50;43.03;;;;;;;;;;4877181;29;20039;-76
2023/02/16 13:40:53;;;;;;;73.80;43.50;;;;;;;;;;4877918;29;20071;-79
2023/02/16 13:43:28;;;;;;;82.30;44.35;;;;;;;;;;4877757;29;20765;-73
2023/02/16 13:45:55;;;;;;;76.22;42.22;;;;;;;;;;4877777;29;20032;-71
2023/02/16 13:48:30;;;;;;;73.43;43.17;;;;;;;;;;4894982;29;20038;-60
2023/02/16 13:51:03;;;;;;;73.47;42.47;;;;;;;;;;4896253;29;20036;-77
2023/02/16 13:53:33;;;;;;;67.88;40.35;;;;;;;;;;4896548;29;20025;-72
2023/02/16 13:56:20;;;;;;;68.20;40.50;;;;;;;;;;4896388;29;20040;-72
2023/02/16 13:58:47;;;;;;;64.22;39.13;;;;;;;;;;4879455;29;20037;-80
2023/02/16 14:01:28;;;;;;;66.18;39.50;;;;;;;;;;4896135;29;20036;-75
2023/02/16 14:03:54;;;;;;;64.55;37.50;;;;;;;;;;4895931;29;20497;-72
2023/02/16 14:06:35;;;;;;;69.93;38.42;;;;;;;;;;4898078;29;20029;-80
2023/02/16 14:09:08;;;;;;;64.45;37.83;;;;;;;;;;4915298;29;20480;-70
2023/02/16 14:11:56;;;;;;;64.78;38.72;;;;;;;;;;4897936;29;20024;-59
2023/02/16 14:14:25;;;;;;;64.85;36.33;;;;;;;;;;4915278;29;20043;-78
2023/02/16 14:16:51;;;;;;;65.60;37.97;;;;;;;;;;4913757;29;20082;-58
2023/02/16 14:19:24;;;;;;;65.82;37.10;;;;;;;;;;4905634;29;20020;-60
2023/02/16 14:21:50;;;;;;;69.50;37.97;;;;;;;;;;4914086;29;20488;-65
2023/02/16 14:24:25;;;;;;;66.18;37.38;;;;;;;;;;4914777;29;20095;-75
2023/02/16 14:27:01;;;;;;;65.43;36.67;;;;;;;;;;4914464;29;20535;-73
2023/02/16 14:29:27;;;;;;;62.20;35.67;;;;;;;;;;4914484;29;20056;-69
2023/02/16 14:31:56;;;;;;;61.67;35.97;;;;;;;;;;4913847;29;20107;-74
2023/02/16 14:34:27;;;;;;;58.33;33.92;;;;;;;;;;4914948;29;20032;-78
2023/02/16 14:37:11;;;;;;;62.92;36.50;;;;;;;;;;4914399;29;20498;-79
2023/02/16 14:39:38;;;;;;;60.88;34.22;;;;;;;;;;4914491;29;20036;-70
2023/02/16 14:42:08;;;;;;;64.43;35.03;;;;;;;;;;4913843;29;20036;-76
2023/02/16 14:44:52;;;;;;;64.15;36.90;;;;;;;;;;4914022;29;20043;-60
2023/02/16 14:47:31;;;;;;;61.42;35.08;;;;;;;;;;4914662;29;20032;-75
2023/02/16 14:50:16;;;;;;;61.33;34.53;;;;;;;;;;4914357;29;20081;-77
2023/02/16 14:52:42;;;;;;;53.63;31.98;;;;;;;;;;4914933;29;20083;-60
2023/02/16 14:55:22;;;;;;;65.57;33.50;;;;;;;;;;4914967;29;20043;-82
2023/02/16 14:57:57;;;;;;;58.50;32.58;;;;;;;;;;4914512;29;20857;-60
2023/02/16 15:00:29;;;;;;;62.20;34.25;;;;;;;;;;4912230;29;20035;-61
2023/02/16 15:02:55;;;;;;;;;;;;;;;;;;4882220;29;20090;-60
2023/02/16 15:05:27;;;;;;;65.00;34.20;;;;;;;;;;4895451;29;19916;-77
2023/02/16 15:07:58;;;;;;;58.70;33.33;;;;;;;;;;4895611;29;20037;-77